Time;durP1;ratioP1;P1;durP2;ratioP2;P2;SDS_P1;SDS_P2;PMS_P1;PMS_P2;Temp;Humidity;BMP_temperature;BMP_pressure;BME280_temperature;BME280_humidity;BME280_pressure;Samples;Min_cycle;Max_cycle;Signal;HPM_P1;HPM_P2
2022/11/01 00:01:26;;;;;;;5.15;2.97;;;17.90;99.90;;;;;;5024206;28;20273;-74
2022/11/01 00:03:54;;;;;;;4.43;2.92;;;17.90;99.90;;;;;;5034474;28;20258;-75
2022/11/01 00:06:22;;;;;;;3.67;2.60;;;17.90;99.90;;;;;;5028328;28;20344;-75
2022/11/01 00:08:48;;;;;;;4.53;2.90;;;17.90;99.90;;;;;;5030522;28;20278;-74
2022/11/01 00:11:17;;;;;;;4.10;2.83;;;17.90;99.90;;;;;;5041819;28;20277;-75
2022/11/01 00:13:49;;;;;;;6.00;2.83;;;17.90;99.90;;;;;;5028229;28;20202;-75
2022/11/01 00:16:16;;;;;;;5.57;2.80;;;17.90;99.90;;;;;;5040569;28;20193;-75
2022/11/01 00:18:42;;;;;;;7.80;3.15;;;17.90;99.90;;;;;;5039348;28;20257;-76
2022/11/01 00:21:08;;;;;;;4.90;3.33;;;17.90;99.90;;;;;;5028889;28;20194;-75
2022/11/01 00:23:33;;;;;;;3.65;2.90;;;17.90;99.90;;;;;;5027527;28;20567;-75
2022/11/01 00:26:00;;;;;;;6.30;3.30;;;17.90;99.90;;;;;;5028958;28;20175;-75
2022/11/01 00:28:26;;;;;;;7.40;3.05;;;17.90;99.90;;;;;;5044754;28;20230;-75
2022/11/01 00:30:56;;;;;;;4.97;3.00;;;17.90;99.90;;;;;;5030726;28;20178;-75
2022/11/01 00:33:24;;;;;;;7.07;3.20;;;17.90;99.90;;;;;;5037852;28;20196;-76
2022/11/01 00:35:52;;;;;;;4.32;2.97;;;17.90;99.90;;;;;;5028313;28;20199;-75
2022/11/01 00:38:18;;;;;;;4.05;2.78;;;17.90;99.90;;;;;;5025619;28;20209;-75
2022/11/01 00:40:47;;;;;;;5.40;2.58;;;17.90;99.90;;;;;;5026702;28;20456;-75
2022/11/01 00:43:15;;;;;;;7.38;3.28;;;17.90;99.90;;;;;;5019112;28;20230;-75
2022/11/01 00:45:43;;;;;;;4.68;2.97;;;17.90;99.90;;;;;;5027554;28;20183;-75
2022/11/01 00:48:11;;;;;;;5.93;2.88;;;17.90;99.90;;;;;;5031568;28;20186;-75
2022/11/01 00:50:40;;;;;;;4.82;2.92;;;17.90;99.90;;;;;;5030385;28;20214;-75
2022/11/01 00:53:10;;;;;;;4.63;2.67;;;17.90;99.90;;;;;;5033116;28;21815;-74
2022/11/01 00:55:39;;;;;;;4.45;2.63;;;17.90;99.90;;;;;;5035955;28;20194;-75
2022/11/01 00:58:05;;;;;;;4.63;3.10;;;17.90;99.90;;;;;;5029893;28;20248;-75
2022/11/01 01:00:33;;;;;;;7.03;2.88;;;17.80;99.90;;;;;;5038921;28;20205;-76
2022/11/01 01:02:58;;;;;;;3.95;2.85;;;17.90;99.90;;;;;;5047050;28;20178;-75
2022/11/01 01:05:24;;;;;;;3.75;2.88;;;17.90;99.90;;;;;;5035443;28;20202;-75
2022/11/01 01:07:50;;;;;;;4.25;3.00;;;17.80;99.90;;;;;;5035207;28;20231;-75
2022/11/01 01:10:18;;;;;;;5.50;2.83;;;17.80;99.90;;;;;;5031956;28;20179;-75
2022/11/01 01:12:44;;;;;;;5.13;2.95;;;17.80;99.90;;;;;;5024116;28;20221;-72
2022/11/01 01:15:10;;;;;;;5.35;2.88;;;17.80;99.90;;;;;;5045599;28;20282;-73
2022/11/01 01:17:35;;;;;;;3.58;2.70;;;17.80;99.90;;;;;;5029892;28;20202;-73
2022/11/01 01:20:03;;;;;;;5.82;2.97;;;17.70;99.90;;;;;;5049176;28;20202;-74
2022/11/01 01:22:31;;;;;;;3.88;2.70;;;17.70;99.90;;;;;;5034495;28;20178;-73
2022/11/01 01:24:57;;;;;;;4.85;2.80;;;17.70;99.90;;;;;;5031291;28;20177;-73
2022/11/01 01:27:23;;;;;;;4.07;2.72;;;17.70;99.90;;;;;;5042232;28;20254;-73
2022/11/01 01:29:51;;;;;;;4.45;2.85;;;17.70;99.90;;;;;;5029197;28;20178;-74
2022/11/01 01:32:21;;;;;;;4.57;2.90;;;17.60;99.90;;;;;;5053284;28;20205;-73
2022/11/01 01:34:50;;;;;;;4.45;3.10;;;17.60;99.90;;;;;;5053124;28;20194;-73
2022/11/01 01:37:16;;;;;;;4.00;2.65;;;17.70;99.90;;;;;;5053026;28;20197;-73
2022/11/01 01:39:42;;;;;;;4.68;2.80;;;17.60;99.90;;;;;;5016564;28;20175;-73
2022/11/01 01:42:29;;;;;;;5.45;2.80;;;17.60;99.90;;;;;;5016488;28;20213;-73
2022/11/01 01:44:54;;;;;;;4.70;2.92;;;17.60;99.90;;;;;;5016756;28;20183;-75
2022/11/01 01:47:35;;;;;;;5.97;2.78;;;17.60;99.90;;;;;;5046754;28;20192;-74
2022/11/01 01:50:16;;;;;;;6.13;3.20;;;17.60;99.90;;;;;;5032254;28;20203;-73
2022/11/01 01:52:53;;;;;;;4.25;2.70;;;17.60;99.90;;;;;;5027728;28;20197;-74
2022/11/01 01:55:24;;;;;;;5.15;2.80;;;17.70;99.90;;;;;;5029813;28;20328;-74
2022/11/01 01:57:51;;;;;;;5.43;2.70;;;17.60;99.90;;;;;;5018654;28;20201;-74
2022/11/01 02:00:19;;;;;;;5.88;2.65;;;17.60;99.90;;;;;;5027085;28;20189;-73
2022/11/01 02:02:45;;;;;;;3.90;2.67;;;17.60;99.90;;;;;;5044077;28;20221;-73
2022/11/01 02:05:26;;;;;;;3.05;2.13;;;17.60;99.90;;;;;;5027274;28;20181;-73
2022/11/01 02:07:53;;;;;;;5.20;2.63;;;17.70;99.90;;;;;;5038179;28;20268;-74
2022/11/01 02:10:19;;;;;;;5.93;2.47;;;17.70;99.90;;;;;;5026640;28;20190;-73
2022/11/01 02:12:47;;;;;;;3.92;2.15;;;17.70;99.90;;;;;;5043630;28;20213;-73
2022/11/01 02:15:15;;;;;;;3.78;1.90;;;17.80;99.90;;;;;;5031200;28;20178;-74
2022/11/01 02:18:15;;;;;;;4.53;2.17;;;17.80;99.90;;;;;;5033980;28;20208;-74
2022/11/01 02:21:09;;;;;;;4.00;2.10;;;17.90;99.90;;;;;;5039980;28;20171;-74
2022/11/01 02:24:04;;;;;;;3.88;1.95;;;18.00;99.90;;;;;;5030867;28;20174;-74
2022/11/01 02:26:32;;;;;;;7.07;2.17;;;18.10;99.90;;;;;;5038642;28;21468;-73
2022/11/01 02:29:14;;;;;;;3.33;1.77;;;18.30;99.90;;;;;;5029652;28;20191;-75
2022/11/01 02:32:30;;;;;;;3.70;2.00;;;18.40;99.90;;;;;;5030664;28;20205;-74
2022/11/01 02:35:04;;;;;;;2.95;1.98;;;18.50;99.90;;;;;;5018280;28;20217;-73
2022/11/01 02:37:59;;;;;;;1.92;1.63;;;18.60;99.90;;;;;;5031366;28;20208;-76
2022/11/01 02:40:39;;;;;;;3.60;1.77;;;18.70;99.90;;;;;;5042485;28;20292;-76
2022/11/01 02:43:15;;;;;;;5.70;2.05;;;18.80;99.90;;;;;;5031136;28;20173;-75
2022/11/01 02:45:46;;;;;;;6.15;2.38;;;18.80;99.90;;;;;;5025260;28;20177;-75
2022/11/01 02:48:12;;;;;;;3.58;1.80;;;18.80;99.90;;;;;;5019593;28;20230;-75
2022/11/01 02:50:44;;;;;;;4.80;2.20;;;18.80;99.90;;;;;;5032223;28;20221;-76
2022/11/01 02:53:13;;;;;;;2.90;1.65;;;18.90;99.90;;;;;;5024074;28;20182;-75
2022/11/01 02:55:39;;;;;;;2.97;1.60;;;18.90;99.90;;;;;;5028299;28;20221;-75
2022/11/01 02:58:11;;;;;;;2.67;1.67;;;18.90;99.90;;;;;;5044167;28;20232;-75
2022/11/01 03:00:40;;;;;;;2.63;1.70;;;18.90;99.90;;;;;;5036805;28;20309;-75
2022/11/01 03:03:11;;;;;;;3.53;2.70;;;18.90;99.90;;;;;;5041107;28;20203;-74
2022/11/01 03:05:43;;;;;;;4.63;2.05;;;18.90;99.90;;;;;;5032113;28;20205;-76
2022/11/01 03:08:13;;;;;;;3.42;2.25;;;18.90;99.90;;;;;;5037558;28;20187;-74
2022/11/01 03:11:18;;;;;;;4.32;1.90;;;18.90;99.90;;;;;;5030048;28;20228;-74
2022/11/01 03:14:10;;;;;;;3.35;1.85;;;18.90;99.90;;;;;;5026981;28;20235;-74
2022/11/01 03:16:38;;;;;;;2.15;1.30;;;18.90;99.90;;;;;;5035174;28;20194;-72
2022/11/01 03:19:06;;;;;;;2.50;1.70;;;18.90;99.90;;;;;;5049823;28;20205;-75
2022/11/01 03:21:40;;;;;;;4.22;1.38;;;18.90;99.90;;;;;;5044695;28;20183;-74
2022/11/01 03:24:21;;;;;;;2.58;1.80;;;18.90;99.90;;;;;;5039940;28;20189;-74
2022/11/01 03:26:59;;;;;;;3.25;1.75;;;18.90;99.90;;;;;;5027763;28;20208;-74
2022/11/01 03:29:26;;;;;;;3.22;1.75;;;18.90;99.90;;;;;;5032243;28;20740;-74
2022/11/01 03:31:55;;;;;;;4.72;1.95;;;18.90;99.90;;;;;;5021800;28;20291;-74
2022/11/01 03:34:24;;;;;;;2.83;1.67;;;18.90;99.90;;;;;;5036474;28;20238;-73
2022/11/01 03:37:03;;;;;;;2.33;1.63;;;18.90;99.90;;;;;;5022996;28;20197;-74
2022/11/01 03:39:38;;;;;;;2.92;1.63;;;18.80;99.90;;;;;;5039982;28;20201;-73
2022/11/01 03:42:10;;;;;;;4.05;1.80;;;18.80;99.90;;;;;;5030030;28;20315;-74
2022/11/01 03:44:43;;;;;;;2.75;1.75;;;18.80;99.90;;;;;;5028169;28;20198;-75
2022/11/01 03:47:10;;;;;;;2.47;1.80;;;18.80;99.90;;;;;;5039649;28;20190;-74
2022/11/01 03:49:35;;;;;;;1.75;1.50;;;18.80;99.90;;;;;;5036755;28;20200;-75
2022/11/01 03:52:03;;;;;;;4.97;1.90;;;18.70;99.90;;;;;;5020461;28;20190;-75
2022/11/01 03:54:29;;;;;;;3.10;1.90;;;18.70;99.90;;;;;;5026640;28;21570;-75
2022/11/01 03:56:54;;;;;;;2.60;1.88;;;18.70;99.90;;;;;;5033237;28;20214;-74
2022/11/01 03:59:22;;;;;;;5.93;3.17;;;18.70;99.90;;;;;;5031293;28;20190;-74
2022/11/01 04:01:48;;;;;;;6.50;2.05;;;18.60;99.90;;;;;;5029422;28;20201;-75
2022/11/01 04:04:15;;;;;;;3.58;1.95;;;18.60;99.90;;;;;;5029034;28;20419;-75
2022/11/01 04:06:41;;;;;;;3.33;1.77;;;18.60;99.90;;;;;;5022121;28;20174;-74
2022/11/01 04:09:07;;;;;;;3.10;1.75;;;18.60;99.90;;;;;;5042509;28;20198;-74
2022/11/01 04:11:32;;;;;;;3.15;1.83;;;18.60;99.90;;;;;;5043795;28;20182;-75
2022/11/01 04:22:12;;;;;;;3.03;1.80;;;18.70;99.90;;;;;;5029535;28;20181;-76
2022/11/01 04:24:38;;;;;;;2.85;1.60;;;18.70;99.90;;;;;;5040876;28;20199;-75
2022/11/01 04:27:04;;;;;;;3.78;1.85;;;18.70;99.90;;;;;;5029041;28;20248;-75
2022/11/01 04:29:29;;;;;;;4.40;1.98;;;18.80;99.90;;;;;;5045439;28;20270;-76
2022/11/01 04:31:55;;;;;;;3.78;1.77;;;18.80;99.90;;;;;;5031553;28;20194;-76
2022/11/01 04:34:53;;;;;;;3.42;1.75;;;18.80;99.90;;;;;;5035893;28;20191;-75
2022/11/01 04:37:12;;;;;;;3.95;1.80;;;18.80;99.90;;;;;;5025708;28;21630;-75
2022/11/01 04:39:38;;;;;;;5.07;2.10;;;18.90;99.90;;;;;;5026009;28;20214;-77
2022/11/01 04:42:04;;;;;;;3.05;1.80;;;18.90;99.90;;;;;;5018715;28;20179;-75
2022/11/01 04:44:32;;;;;;;2.85;1.83;;;18.90;99.90;;;;;;5033396;28;20170;-75
2022/11/01 04:46:57;;;;;;;3.30;1.77;;;18.90;99.90;;;;;;5025869;28;21698;-75
2022/11/01 04:49:28;;;;;;;1.90;1.63;;;18.90;99.90;;;;;;5036428;28;20483;-75
2022/11/01 04:51:53;;;;;;;5.10;1.95;;;18.90;99.90;;;;;;5037990;28;20234;-75
2022/11/01 04:54:21;;;;;;;2.55;1.65;;;18.90;99.90;;;;;;5039859;28;20221;-74
2022/11/01 04:56:47;;;;;;;3.50;1.55;;;19.00;99.90;;;;;;5033877;28;20183;-74
2022/11/01 04:59:15;;;;;;;3.65;1.83;;;19.00;99.90;;;;;;5021808;28;20309;-73
2022/11/01 05:01:40;;;;;;;3.63;1.88;;;19.00;99.90;;;;;;5028616;28;20240;-73
2022/11/01 05:04:06;;;;;;;3.80;1.67;;;19.00;99.90;;;;;;5038813;28;20202;-75
2022/11/01 05:06:31;;;;;;;3.15;1.85;;;19.00;99.90;;;;;;5026171;28;20268;-76
2022/11/01 05:08:57;;;;;;;3.20;1.77;;;19.00;99.90;;;;;;5024217;28;20193;-74
2022/11/01 05:11:25;;;;;;;2.97;1.75;;;19.00;99.90;;;;;;5047922;28;20182;-75
2022/11/01 05:13:53;;;;;;;3.90;1.92;;;19.00;99.90;;;;;;5044125;28;20202;-74
2022/11/01 05:16:21;;;;;;;4.18;1.80;;;19.00;99.90;;;;;;5023296;28;20190;-75
2022/11/01 05:18:49;;;;;;;3.40;1.83;;;19.00;99.90;;;;;;5028801;28;20226;-76
2022/11/01 05:21:17;;;;;;;3.40;1.90;;;19.00;99.90;;;;;;5033608;28;20284;-75
2022/11/01 05:23:43;;;;;;;3.28;1.90;;;19.00;99.90;;;;;;5044267;28;20239;-74
2022/11/01 05:26:08;;;;;;;4.45;2.08;;;19.00;99.90;;;;;;5029997;28;20273;-76
2022/11/01 05:28:34;;;;;;;4.85;2.00;;;19.00;99.90;;;;;;5024733;28;20194;-76
2022/11/01 05:31:00;;;;;;;4.00;2.53;;;19.00;99.90;;;;;;5019362;28;20272;-75
2022/11/01 05:33:25;;;;;;;4.18;2.35;;;19.00;99.90;;;;;;5022850;28;20177;-76
2022/11/01 05:35:51;;;;;;;4.38;1.90;;;18.90;99.90;;;;;;5029424;28;20242;-75
2022/11/01 05:38:19;;;;;;;3.38;2.03;;;18.90;99.90;;;;;;5018839;28;20270;-77
2022/11/01 05:40:44;;;;;;;4.28;1.85;;;18.90;99.90;;;;;;5021038;28;20180;-75
2022/11/01 05:43:10;;;;;;;3.75;1.80;;;18.90;99.90;;;;;;5027418;28;20202;-75
2022/11/01 05:45:36;;;;;;;5.25;1.88;;;18.90;99.90;;;;;;5019560;28;20257;-73
2022/11/01 05:48:03;;;;;;;3.03;1.70;;;18.80;99.90;;;;;;5020281;28;20791;-76
2022/11/01 05:50:29;;;;;;;2.30;1.70;;;18.80;99.90;;;;;;5019707;28;20187;-74
2022/11/01 05:53:06;;;;;;;1.52;1.42;;;18.80;99.90;;;;;;5050138;28;20246;-76
2022/11/01 05:55:32;;;;;;;3.70;1.80;;;18.80;99.90;;;;;;5049443;28;20265;-76
2022/11/01 05:57:58;;;;;;;2.90;1.80;;;18.80;99.90;;;;;;5035236;28;20288;-75
2022/11/01 06:00:23;;;;;;;2.88;1.60;;;18.80;99.90;;;;;;5028018;28;20227;-76
2022/11/01 06:02:51;;;;;;;6.13;1.60;;;18.80;99.90;;;;;;5024534;28;20175;-75
2022/11/01 06:05:16;;;;;;;2.22;1.48;;;18.80;99.90;;;;;;5024625;28;20219;-77
2022/11/01 06:07:42;;;;;;;3.80;1.50;;;18.80;99.90;;;;;;5028911;28;20221;-75
2022/11/01 06:10:08;;;;;;;2.53;1.65;;;18.80;99.90;;;;;;5030023;28;20197;-75
2022/11/01 06:12:33;;;;;;;3.20;1.60;;;18.80;99.90;;;;;;5022150;28;20297;-77
2022/11/01 06:15:01;;;;;;;4.32;2.10;;;18.80;99.90;;;;;;5030333;28;20173;-76
2022/11/01 06:17:27;;;;;;;3.10;1.50;;;18.70;99.90;;;;;;5027376;28;20210;-76
2022/11/01 06:19:54;;;;;;;3.45;1.30;;;18.70;99.90;;;;;;5028868;28;20196;-76
2022/11/01 06:22:22;;;;;;;4.03;1.52;;;18.70;99.90;;;;;;5046687;28;20174;-76
2022/11/01 06:24:48;;;;;;;2.55;1.50;;;18.70;99.90;;;;;;5033031;28;20261;-76
2022/11/01 06:27:14;;;;;;;2.58;1.35;;;18.60;99.90;;;;;;5045200;28;20265;-73
2022/11/01 06:29:39;;;;;;;2.60;1.50;;;18.60;99.90;;;;;;5020701;28;20343;-71
2022/11/01 06:32:05;;;;;;;3.25;1.48;;;18.60;99.90;;;;;;5038509;28;20243;-73
2022/11/01 06:34:31;;;;;;;2.53;1.33;;;18.60;99.90;;;;;;5026663;28;20166;-73
2022/11/01 06:36:59;;;;;;;2.42;1.35;;;18.60;99.90;;;;;;5026396;28;20259;-74
2022/11/01 06:39:25;;;;;;;3.33;1.35;;;18.50;99.90;;;;;;5038314;28;20194;-75
2022/11/01 06:41:53;;;;;;;2.80;1.23;;;18.50;99.90;;;;;;5025585;28;20266;-73
2022/11/01 06:44:19;;;;;;;2.08;1.40;;;18.50;99.90;;;;;;5041495;28;20210;-74
2022/11/01 06:46:45;;;;;;;1.83;1.30;;;18.50;99.90;;;;;;5029793;28;20167;-75
2022/11/01 06:49:11;;;;;;;3.05;1.40;;;18.50;99.90;;;;;;5025917;28;20233;-74
2022/11/01 06:51:39;;;;;;;2.65;1.52;;;18.40;99.90;;;;;;5041189;28;20186;-74
2022/11/01 06:54:04;;;;;;;3.55;1.52;;;18.40;99.90;;;;;;5025733;28;20192;-74
2022/11/01 06:56:30;;;;;;;2.30;1.33;;;18.40;99.90;;;;;;5028625;28;20181;-74
2022/11/01 06:58:59;;;;;;;3.35;1.38;;;18.40;99.90;;;;;;5028006;28;20205;-73
2022/11/01 07:01:29;;;;;;;3.47;1.27;;;18.40;99.90;;;;;;5023800;28;20281;-74
2022/11/01 07:03:55;;;;;;;3.05;1.50;;;18.40;99.90;;;;;;5028948;28;20182;-75
2022/11/01 07:06:23;;;;;;;2.05;1.40;;;18.40;99.90;;;;;;5021020;28;20166;-73
2022/11/01 07:08:48;;;;;;;2.80;1.38;;;18.40;99.90;;;;;;5047948;28;20233;-74
2022/11/01 07:11:14;;;;;;;3.47;1.55;;;18.40;99.90;;;;;;5029117;28;20174;-74
2022/11/01 07:13:44;;;;;;;2.65;1.40;;;18.40;99.90;;;;;;5041593;28;20178;-74
2022/11/01 07:16:10;;;;;;;3.20;1.30;;;18.40;99.90;;;;;;5028186;28;20206;-75
2022/11/01 07:18:35;;;;;;;2.17;1.17;;;18.30;99.90;;;;;;5030341;28;20237;-74
2022/11/01 07:21:05;;;;;;;1.80;1.20;;;18.30;99.90;;;;;;5029395;28;20202;-74
2022/11/01 07:23:33;;;;;;;3.30;1.10;;;18.30;99.90;;;;;;5023842;28;20224;-75
2022/11/01 07:26:01;;;;;;;1.92;1.15;;;18.30;99.90;;;;;;5024074;28;20189;-75
2022/11/01 07:28:27;;;;;;;2.15;1.15;;;18.30;99.90;;;;;;5029258;28;20212;-76
2022/11/01 07:30:56;;;;;;;2.47;1.10;;;18.20;99.90;;;;;;5051475;28;20178;-74
2022/11/01 07:33:21;;;;;;;3.70;1.10;;;18.20;99.90;;;;;;5049903;28;20398;-76
2022/11/01 07:35:52;;;;;;;2.50;1.27;;;18.10;99.90;;;;;;5041590;28;20181;-75
2022/11/01 07:38:18;;;;;;;3.10;1.17;;;18.20;99.90;;;;;;5057228;28;20193;-75
2022/11/01 07:40:48;;;;;;;2.97;1.10;;;18.10;99.90;;;;;;5039919;28;20195;-76
2022/11/01 07:43:15;;;;;;;3.90;1.23;;;18.10;99.90;;;;;;5032839;28;20198;-76
2022/11/01 07:45:40;;;;;;;2.88;1.20;;;18.00;99.90;;;;;;5020791;28;20241;-76
2022/11/01 07:48:10;;;;;;;1.17;0.82;;;18.00;99.90;;;;;;5030884;28;20278;-76
2022/11/01 07:50:37;;;;;;;2.53;1.02;;;18.00;99.90;;;;;;5014292;28;20209;-76
2022/11/01 07:53:05;;;;;;;2.95;0.80;;;17.90;99.90;;;;;;5029694;28;20276;-77
2022/11/01 07:55:31;;;;;;;1.70;0.80;;;17.90;99.90;;;;;;5031669;28;20171;-76
2022/11/01 07:57:57;;;;;;;3.35;1.10;;;17.80;99.90;;;;;;5019471;28;20206;-76
2022/11/01 08:00:22;;;;;;;1.75;0.90;;;17.70;99.90;;;;;;5022765;28;20209;-76
2022/11/01 08:02:48;;;;;;;1.55;0.90;;;17.60;99.90;;;;;;5032779;28;20182;-75
2022/11/01 08:05:16;;;;;;;1.25;0.80;;;17.60;99.90;;;;;;5028034;28;20178;-75
2022/11/01 08:07:42;;;;;;;1.80;0.95;;;17.50;99.90;;;;;;5027066;28;20171;-78
2022/11/01 08:10:09;;;;;;;1.17;0.88;;;17.40;99.90;;;;;;5022098;28;20175;-75
2022/11/01 08:12:35;;;;;;;1.25;0.80;;;17.40;99.90;;;;;;5030755;28;20207;-75
2022/11/01 08:15:04;;;;;;;1.60;0.65;;;17.30;99.90;;;;;;5023310;28;20244;-76
2022/11/01 08:17:32;;;;;;;1.77;0.73;;;17.30;99.90;;;;;;5033601;28;20191;-75
2022/11/01 08:19:58;;;;;;;1.40;0.68;;;17.30;99.90;;;;;;5028603;28;20193;-74
2022/11/01 08:22:26;;;;;;;1.70;0.77;;;17.30;99.90;;;;;;5026471;28;20175;-77
2022/11/01 08:24:51;;;;;;;2.03;0.88;;;17.30;99.90;;;;;;5023924;28;20198;-75
2022/11/01 08:27:17;;;;;;;3.25;1.00;;;17.30;99.90;;;;;;5025174;28;20183;-76
2022/11/01 08:29:43;;;;;;;2.60;0.95;;;17.30;99.90;;;;;;5029659;28;20175;-76
2022/11/01 08:32:08;;;;;;;3.55;1.20;;;17.20;99.90;;;;;;5032921;28;20203;-76
2022/11/01 08:34:36;;;;;;;1.50;0.80;;;17.30;99.90;;;;;;5044556;28;20174;-74
2022/11/01 08:37:02;;;;;;;5.18;1.35;;;17.30;99.90;;;;;;5042063;28;20178;-73
2022/11/01 08:39:30;;;;;;;1.83;0.90;;;17.40;99.90;;;;;;5026963;28;20205;-75
2022/11/01 08:41:58;;;;;;;4.38;0.80;;;17.50;99.90;;;;;;5037304;28;20174;-74
2022/11/01 08:44:26;;;;;;;1.95;0.73;;;17.50;99.90;;;;;;5051434;28;20418;-74
2022/11/01 08:46:59;;;;;;;2.05;0.85;;;17.50;99.90;;;;;;5029534;28;20178;-74
2022/11/01 08:49:26;;;;;;;2.15;0.65;;;17.50;99.90;;;;;;5017514;28;20174;-75
2022/11/01 08:51:56;;;;;;;1.52;0.70;;;17.50;99.90;;;;;;5028261;28;20193;-74
2022/11/01 08:54:22;;;;;;;2.20;0.88;;;17.60;99.90;;;;;;5021150;28;20185;-75
2022/11/01 08:56:47;;;;;;;2.75;0.75;;;17.70;99.90;;;;;;5043415;28;20227;-76
2022/11/01 08:59:13;;;;;;;2.25;0.90;;;17.70;99.90;;;;;;5026227;28;20245;-76
2022/11/01 09:01:42;;;;;;;2.35;0.90;;;18.00;99.90;;;;;;5049467;28;20313;-74
2022/11/01 09:04:08;;;;;;;2.63;0.93;;;18.40;99.90;;;;;;5029334;28;20337;-73
2022/11/01 09:06:34;;;;;;;1.85;0.77;;;18.80;99.90;;;;;;5027887;28;20296;-76
2022/11/01 09:08:59;;;;;;;1.52;0.70;;;19.30;99.90;;;;;;5033214;28;20183;-76
2022/11/01 09:11:25;;;;;;;2.90;0.80;;;19.60;99.90;;;;;;5028081;28;20192;-75
2022/11/01 09:13:53;;;;;;;4.25;0.82;;;20.00;99.90;;;;;;5044229;28;20255;-75
2022/11/01 09:16:19;;;;;;;3.05;0.90;;;20.20;99.90;;;;;;5026933;28;20199;-74
2022/11/01 09:18:44;;;;;;;2.10;0.73;;;20.30;99.90;;;;;;5023157;28;20224;-75
2022/11/01 09:21:10;;;;;;;1.58;0.85;;;20.40;99.90;;;;;;5044175;28;20236;-76
2022/11/01 09:23:39;;;;;;;2.28;0.80;;;20.50;99.90;;;;;;5023633;28;20285;-75
2022/11/01 09:26:07;;;;;;;3.30;1.23;;;20.70;99.90;;;;;;5029837;28;20196;-77
2022/11/01 09:28:36;;;;;;;1.73;0.60;;;20.80;99.90;;;;;;5017322;28;20191;-76
2022/11/01 09:31:07;;;;;;;3.30;0.90;;;20.90;99.90;;;;;;5037229;28;20240;-75
2022/11/01 09:33:34;;;;;;;2.35;0.80;;;20.90;99.90;;;;;;5048172;28;20289;-75
2022/11/01 09:35:59;;;;;;;1.17;0.60;;;21.00;99.90;;;;;;5037646;28;20210;-76
2022/11/01 09:38:26;;;;;;;2.25;0.75;;;21.00;99.90;;;;;;5055448;28;20201;-75
2022/11/01 09:41:21;;;;;;;2.40;0.80;;;21.10;99.90;;;;;;5016171;28;20233;-77
2022/11/01 09:43:47;;;;;;;2.33;0.75;;;21.10;99.90;;;;;;5039984;28;20214;-76
2022/11/01 09:46:16;;;;;;;1.85;0.80;;;21.10;99.90;;;;;;5023136;28;20186;-77
2022/11/01 09:48:43;;;;;;;3.35;0.90;;;21.00;99.90;;;;;;5035934;28;20214;-77
2022/11/01 09:51:19;;;;;;;1.98;0.90;;;21.00;99.90;;;;;;5050808;28;20208;-76
2022/11/01 09:53:47;;;;;;;2.72;1.00;;;20.90;99.90;;;;;;5036357;28;20196;-77
2022/11/01 09:56:31;;;;;;;1.42;0.88;;;20.90;99.90;;;;;;5036727;28;20262;-76
2022/11/01 09:59:22;;;;;;;1.33;0.73;;;20.90;99.90;;;;;;5029784;28;20207;-75
2022/11/01 10:01:54;;;;;;;2.28;0.80;;;20.80;99.90;;;;;;5030476;28;20464;-75
2022/11/01 10:04:25;;;;;;;1.77;0.82;;;20.80;99.90;;;;;;5029221;28;20185;-76
2022/11/01 10:07:28;;;;;;;2.13;0.95;;;20.80;99.90;;;;;;5045072;28;20170;-75
2022/11/01 10:09:59;;;;;;;2.58;1.20;;;20.80;99.90;;;;;;5019481;28;20190;-75
2022/11/01 10:12:37;;;;;;;2.50;0.80;;;20.70;99.90;;;;;;5043863;28;20175;-76
2022/11/01 10:15:17;;;;;;;2.38;0.88;;;20.60;99.90;;;;;;5039427;28;20198;-76
2022/11/01 10:17:54;;;;;;;2.00;0.80;;;20.60;99.90;;;;;;5034889;28;20292;-76
2022/11/01 10:20:27;;;;;;;2.75;0.80;;;20.50;99.90;;;;;;5038189;28;20201;-74
2022/11/01 10:22:54;;;;;;;2.97;0.70;;;20.50;99.90;;;;;;5026831;28;20197;-75
2022/11/01 10:25:19;;;;;;;1.45;0.90;;;20.40;99.90;;;;;;5041348;28;20170;-76
2022/11/01 10:27:58;;;;;;;3.92;0.80;;;20.40;99.90;;;;;;5042449;28;20212;-77
2022/11/01 10:30:27;;;;;;;4.05;0.82;;;20.40;99.90;;;;;;5041178;28;20181;-76
2022/11/01 10:33:01;;;;;;;2.30;1.00;;;20.40;99.90;;;;;;5027116;28;20250;-75
2022/11/01 10:35:33;;;;;;;3.75;0.95;;;20.40;99.90;;;;;;5041360;28;20182;-77
2022/11/01 10:38:03;;;;;;;5.55;1.00;;;20.40;99.90;;;;;;5028119;28;20289;-75
2022/11/01 10:40:36;;;;;;;2.53;1.00;;;20.40;99.90;;;;;;5016382;28;20237;-75
2022/11/01 10:43:10;;;;;;;2.58;1.10;;;20.50;99.90;;;;;;5032737;28;20269;-74
2022/11/01 10:45:36;;;;;;;1.85;1.02;;;20.40;99.90;;;;;;5037993;28;20173;-76
2022/11/01 10:48:02;;;;;;;2.53;0.90;;;20.40;99.90;;;;;;5036623;28;20198;-76
2022/11/01 10:50:29;;;;;;;1.65;0.80;;;20.40;99.90;;;;;;5020700;28;20221;-74
2022/11/01 10:53:06;;;;;;;1.92;0.80;;;20.40;99.90;;;;;;5021798;28;20202;-76
2022/11/01 10:55:42;;;;;;;2.15;1.02;;;20.40;99.90;;;;;;5026093;28;20297;-77
2022/11/01 10:58:25;;;;;;;3.15;0.90;;;20.40;99.90;;;;;;5023214;28;20209;-77
2022/11/01 11:00:51;;;;;;;1.98;0.90;;;20.40;99.90;;;;;;5040082;28;20177;-78
2022/11/01 11:03:20;;;;;;;2.53;0.88;;;20.40;99.90;;;;;;5042235;28;20199;-78
2022/11/01 11:05:50;;;;;;;2.13;0.90;;;20.50;99.90;;;;;;5051460;28;20522;-79
2022/11/01 11:08:20;;;;;;;2.50;0.90;;;20.50;99.80;;;;;;5024086;28;20209;-79
2022/11/01 11:10:47;;;;;;;2.55;1.00;;;20.50;99.90;;;;;;5026200;28;20198;-77
2022/11/01 11:13:15;;;;;;;1.75;0.80;;;20.50;99.60;;;;;;5032138;28;20190;-78
2022/11/01 11:16:04;;;;;;;3.67;1.30;;;20.50;99.10;;;;;;5034953;28;20190;-76
2022/11/01 11:18:37;;;;;;;3.00;0.93;;;20.50;98.90;;;;;;5020328;28;20209;-77
2022/11/01 11:21:07;;;;;;;4.13;0.90;;;20.50;98.80;;;;;;5028268;28;20269;-81
2022/11/01 11:23:38;;;;;;;2.70;0.93;;;20.60;98.30;;;;;;5041858;28;21524;-76
2022/11/01 11:26:24;;;;;;;2.95;1.10;;;20.60;98.20;;;;;;5038528;28;20237;-77
2022/11/01 11:28:55;;;;;;;2.85;1.02;;;20.60;97.10;;;;;;5033015;28;20190;-77
2022/11/01 11:31:34;;;;;;;2.55;1.05;;;20.60;96.90;;;;;;5021503;28;20201;-77
2022/11/01 11:34:26;;;;;;;1.90;0.93;;;20.60;97.50;;;;;;5034884;28;20182;-76
2022/11/01 11:36:55;;;;;;;4.20;1.17;;;20.70;96.00;;;;;;5020608;28;20178;-78
2022/11/01 11:39:28;;;;;;;4.70;1.20;;;20.70;97.30;;;;;;5034242;28;20289;-78
2022/11/01 11:42:08;;;;;;;5.15;1.27;;;20.70;96.50;;;;;;5024540;28;20187;-77
2022/11/01 11:44:39;;;;;;;4.10;1.20;;;20.70;95.90;;;;;;5015855;28;20195;-77
2022/11/01 11:47:23;;;;;;;3.05;1.10;;;20.70;95.60;;;;;;5034805;28;20236;-77
2022/11/01 11:49:52;;;;;;;3.35;1.10;;;20.70;95.70;;;;;;5039543;28;20205;-76
2022/11/01 11:52:23;;;;;;;2.90;1.00;;;20.70;95.90;;;;;;5033660;28;20178;-77
2022/11/01 11:54:51;;;;;;;2.65;1.10;;;20.70;95.80;;;;;;5040526;28;20181;-78
2022/11/01 11:57:26;;;;;;;2.38;1.00;;;20.70;95.80;;;;;;5043990;28;20205;-77
2022/11/01 11:59:54;;;;;;;3.80;1.30;;;20.70;95.30;;;;;;5039199;28;20172;-75
2022/11/01 12:02:29;;;;;;;3.33;1.20;;;20.80;96.10;;;;;;5051250;28;20175;-78
2022/11/01 12:05:02;;;;;;;3.63;0.98;;;20.80;95.90;;;;;;5041697;28;20180;-79
2022/11/01 12:07:36;;;;;;;2.38;0.93;;;20.90;95.10;;;;;;5036529;28;22245;-78
2022/11/01 12:10:26;;;;;;;3.15;1.00;;;20.90;95.00;;;;;;5038445;28;20194;-77
2022/11/01 12:12:53;;;;;;;2.10;0.93;;;21.00;95.20;;;;;;5043191;28;20205;-76
2022/11/01 12:15:35;;;;;;;4.18;1.10;;;21.10;95.40;;;;;;5039438;28;20317;-79
2022/11/01 12:18:17;;;;;;;2.85;1.08;;;21.20;95.00;;;;;;5035711;28;20201;-78
2022/11/01 12:20:48;;;;;;;3.85;1.05;;;21.20;94.10;;;;;;5029919;28;20269;-77
2022/11/01 12:23:32;;;;;;;2.83;1.10;;;21.30;93.90;;;;;;5036070;28;20190;-80
2022/11/01 12:26:00;;;;;;;2.80;1.10;;;21.30;93.90;;;;;;5044649;28;20236;-77
2022/11/01 12:28:37;;;;;;;4.55;1.10;;;21.30;94.00;;;;;;5024981;28;20185;-74
2022/11/01 12:31:12;;;;;;;4.93;1.17;;;21.40;93.80;;;;;;5031893;28;20292;-76
2022/11/01 12:33:44;;;;;;;3.70;1.10;;;21.40;92.10;;;;;;5033585;28;20266;-76
2022/11/01 12:36:12;;;;;;;5.03;0.93;;;21.40;91.80;;;;;;5056888;28;20202;-76
2022/11/01 12:38:49;;;;;;;2.58;1.00;;;21.40;92.10;;;;;;5058396;28;20198;-77
2022/11/01 12:41:47;;;;;;;4.63;1.10;;;21.40;92.20;;;;;;5046465;28;20155;-78
2022/11/01 12:44:24;;;;;;;3.75;1.25;;;21.40;92.00;;;;;;5026961;28;20178;-76
2022/11/01 12:46:59;;;;;;;3.13;1.20;;;21.40;91.80;;;;;;5057540;28;20189;-77
2022/11/01 12:49:40;;;;;;;4.60;1.20;;;21.40;91.50;;;;;;5040327;28;20205;-77
2022/11/01 12:52:25;;;;;;;2.17;0.80;;;21.40;91.40;;;;;;5045681;28;20190;-78
2022/11/01 12:55:00;;;;;;;4.72;1.30;;;21.50;92.20;;;;;;5040617;28;20206;-78
2022/11/01 12:57:31;;;;;;;4.95;1.23;;;21.50;91.80;;;;;;5057804;28;20174;-77
2022/11/01 12:59:58;;;;;;;3.75;1.10;;;21.60;91.80;;;;;;5043254;28;20269;-76
2022/11/01 13:02:26;;;;;;;3.05;1.10;;;21.60;91.50;;;;;;5039857;28;20294;-77
2022/11/01 13:05:10;;;;;;;2.50;1.10;;;21.60;91.40;;;;;;5044575;28;20170;-77
2022/11/01 13:07:57;;;;;;;2.88;1.00;;;21.60;91.10;;;;;;5032867;28;20170;-78
2022/11/01 13:10:30;;;;;;;2.40;1.00;;;21.70;91.30;;;;;;5041745;28;20162;-79
2022/11/01 13:13:12;;;;;;;3.25;1.10;;;21.70;91.50;;;;;;5046364;28;20174;-76